Time;durP1;ratioP1;P1;durP2;ratioP2;P2;SDS_P1;SDS_P2;PMS_P1;PMS_P2;Temp;Humidity;BMP_temperature;BMP_pressure;BME280_temperature;BME280_humidity;BME280_pressure;Samples;Min_cycle;Max_cycle;Signal;HPM_P1;HPM_P2
2022/06/22 00:01:13;;;;;;;5.57;2.15;;;;;;;24.04;41.96;97826.25;5326681;26;20080;-82
2022/06/22 00:03:41;;;;;;;4.72;2.17;;;;;;;24.43;40.82;97820.53;5346536;26;20142;-82
2022/06/22 00:06:27;;;;;;;4.12;2.15;;;;;;;24.71;40.09;97823.78;5345889;26;20097;-82
2022/06/22 00:08:54;;;;;;;3.75;1.95;;;;;;;24.25;41.18;97820.59;5326533;26;20078;-82
2022/06/22 00:11:22;;;;;;;3.28;2.00;;;;;;;24.46;40.49;97826.34;5346346;26;20331;-82
2022/06/22 00:13:57;;;;;;;4.57;2.20;;;;;;;25.16;39.06;97827.88;5326050;26;20060;-82
2022/06/22 00:16:32;;;;;;;6.12;2.00;;;;;;;24.73;40.02;97837.63;5346479;26;20052;-82
2022/06/22 00:18:59;;;;;;;4.55;2.28;;;;;;;25.35;38.09;97838.97;5346022;26;20075;-82
2022/06/22 00:21:36;;;;;;;4.32;1.87;;;;;;;25.56;36.98;97840.31;5345897;26;20135;-82
2022/06/22 00:24:39;;;;;;;4.45;1.80;;;;;;;25.72;36.00;97842.13;5326789;26;20119;-82
2022/06/22 00:27:27;;;;;;;5.32;1.92;;;;;;;25.54;36.30;97847.56;5287770;26;20052;-82
2022/06/22 00:30:19;;;;;;;7.62;1.87;;;;;;;25.67;35.61;97850.53;5346230;26;20064;-82
2022/06/22 00:33:08;;;;;;;6.45;2.40;;;;;;;25.23;35.72;97836.81;5346433;26;20119;-82
2022/06/22 00:36:03;;;;;;;4.37;1.98;;;;;;;25.92;33.59;97835.53;5346300;26;20397;-82
2022/06/22 00:38:32;;;;;;;4.37;2.05;;;;;;;26.04;34.78;97833.34;5344982;26;20115;-82
2022/06/22 00:41:22;;;;;;;2.78;1.73;;;;;;;25.58;35.38;97825.94;5345802;26;20123;-82
2022/06/22 00:43:51;;;;;;;3.50;2.00;;;;;;;25.88;35.03;97824.47;5310897;26;20061;-82
2022/06/22 00:46:21;;;;;;;4.45;1.70;;;;;;;24.90;38.39;97817.41;5326682;26;20075;-82
2022/06/22 00:48:52;;;;;;;5.25;2.00;;;;;;;24.94;37.85;97824.00;5345854;26;20056;-82
2022/06/22 00:51:32;;;;;;;3.62;2.03;;;;;;;24.89;36.81;97813.97;5326576;26;20455;-82
2022/06/22 00:54:10;;;;;;;3.78;1.83;;;;;;;24.39;36.57;97813.94;5326418;26;20077;-82
2022/06/22 00:56:37;;;;;;;3.65;1.80;;;;;;;25.53;34.76;97816.88;5326665;26;20064;-82
2022/06/22 00:59:23;;;;;;;3.60;1.75;;;;;;;26.78;34.25;97822.38;5346078;26;20147;-82
2022/06/22 01:01:50;;;;;;;3.40;1.90;;;;;;;26.16;37.46;97818.81;5345909;26;20096;-82
2022/06/22 01:04:21;;;;;;;4.60;1.90;;;;;;;26.43;37.66;97817.59;5346183;26;20075;-82
2022/06/22 01:07:15;;;;;;;5.35;2.10;;;;;;;25.32;37.75;97812.91;5326635;26;20439;-82
2022/06/22 01:09:46;;;;;;;4.20;2.00;;;;;;;24.76;38.96;97811.75;5296903;26;20131;-82
2022/06/22 01:12:31;;;;;;;3.17;1.70;;;;;;;24.88;39.70;97814.09;5346248;26;20447;-82
2022/06/22 01:15:17;;;;;;;3.30;1.85;;;;;;;23.93;35.29;97806.25;5326684;26;20128;-82
2022/06/22 01:18:08;;;;;;;3.47;1.75;;;;;;;24.49;38.60;97812.81;5346202;26;20144;-82
2022/06/22 01:21:11;;;;;;;5.90;2.20;;;;;;;24.53;38.02;97805.41;5326128;26;20095;-82
2022/06/22 01:24:06;;;;;;;3.92;1.90;;;;;;;25.64;35.60;97806.78;5345771;26;20100;-82
2022/06/22 01:27:06;;;;;;;6.93;2.00;;;;;;;26.74;35.12;97799.91;5346107;26;20120;-82
2022/06/22 01:29:33;;;;;;;4.75;2.08;;;;;;;26.85;37.58;97811.94;5345535;26;20529;-82
2022/06/22 01:32:04;;;;;;;4.78;2.12;;;;;;;26.70;37.03;97803.09;5346189;26;20103;-82
2022/06/22 01:34:37;;;;;;;4.85;2.00;;;;;;;26.32;38.50;97804.69;5326776;26;20482;-82
2022/06/22 01:37:06;;;;;;;4.00;1.98;;;;;;;26.40;37.36;97800.25;5325944;26;20105;-82
2022/06/22 01:39:33;;;;;;;4.80;2.08;;;;;;;26.15;38.04;97798.63;5345641;26;20072;-82
2022/06/22 01:42:06;;;;;;;4.22;2.20;;;;;;;26.31;37.72;97808.34;5346071;26;20455;-83
2022/06/22 01:44:53;;;;;;;3.37;2.10;;;;;;;27.10;35.66;97809.97;5325837;26;20107;-82
2022/06/22 01:47:25;;;;;;;3.17;1.85;;;;;;;26.89;36.18;97813.22;5345591;26;20079;-82
2022/06/22 01:50:03;;;;;;;4.15;2.10;;;;;;;25.81;37.79;97818.19;5326162;26;20414;-82
2022/06/22 01:52:58;;;;;;;4.68;2.15;;;;;;;26.65;37.20;97827.41;5326051;26;20048;-82
2022/06/22 01:55:54;;;;;;;3.10;1.80;;;;;;;26.56;36.84;97825.78;5345794;26;20100;-82
2022/06/22 01:58:34;;;;;;;6.43;1.80;;;;;;;26.13;36.91;97809.38;5325861;26;20412;-83
2022/06/22 02:01:10;;;;;;;4.45;2.10;;;;;;;27.16;34.03;97817.25;5326319;26;20106;-82
2022/06/22 02:03:59;;;;;;;3.60;1.90;;;;;;;26.77;34.49;97817.25;5346319;26;20063;-82
2022/06/22 02:09:26;;;;;;;4.00;2.00;;;;;;;27.11;36.07;97827.53;5346592;26;20099;-82
2022/06/22 02:12:18;;;;;;;7.25;2.60;;;;;;;26.43;38.55;97829.00;5326840;26;20134;-82
2022/06/22 02:14:47;;;;;;;3.22;1.90;;;;;;;26.20;40.27;97843.91;5346609;26;20062;-82
2022/06/22 02:17:18;;;;;;;3.78;1.90;;;;;;;26.00;40.62;97832.88;5327083;26;20391;-82
2022/06/22 02:20:16;;;;;;;2.40;1.80;;;;;;;25.81;40.28;97830.56;5326387;26;20100;-82
2022/06/22 02:22:45;;;;;;;3.55;2.00;;;;;;;25.18;41.85;97836.47;5346604;26;20067;-82
2022/06/22 02:25:12;;;;;;;7.45;2.33;;;;;;;25.03;42.87;97834.47;5346765;26;20109;-82
2022/06/22 02:27:39;;;;;;;4.30;2.03;;;;;;;25.01;42.90;97828.53;5326527;26;20055;-82
2022/06/22 02:30:07;;;;;;;2.60;1.80;;;;;;;25.14;42.38;97827.22;5346765;26;20109;-82
2022/06/22 02:32:37;;;;;;;6.35;2.10;;;;;;;25.44;41.67;97831.88;5346350;26;20072;-82
2022/06/22 02:35:06;;;;;;;3.00;1.87;;;;;;;25.87;40.42;97832.56;5346753;26;20044;-82
2022/06/22 02:37:39;;;;;;;5.18;2.10;;;;;;;25.90;40.06;97832.22;5346519;26;20044;-82
2022/06/22 02:40:10;;;;;;;4.47;2.20;;;;;;;23.42;47.42;97814.91;5308262;26;20131;-82
2022/06/22 02:45:22;;;;;;;5.47;2.10;;;;;;;24.12;44.75;97822.81;5330207;26;20052;-82
2022/06/22 02:47:55;;;;;;;5.80;2.10;;;;;;;23.22;47.05;97819.47;5346099;26;20045;-82
2022/06/22 02:51:00;;;;;;;6.53;2.08;;;;;;;24.27;43.55;97816.00;5326848;26;20088;-82
2022/06/22 02:53:33;;;;;;;3.47;1.90;;;;;;;24.94;41.53;97818.75;5346356;26;20064;-82
2022/06/22 02:56:03;;;;;;;3.47;1.80;;;;;;;25.22;39.32;97809.59;5327464;26;20369;-82
2022/06/22 02:58:36;;;;;;;4.90;1.83;;;;;;;24.45;36.58;97808.00;5326832;26;20123;-82
2022/06/22 03:01:12;;;;;;;4.32;2.00;;;;;;;24.74;36.44;97813.72;5346226;26;20118;-82
2022/06/22 03:03:55;;;;;;;2.53;1.67;;;;;;;25.25;37.10;97827.75;5346761;26;20059;-82
2022/06/22 03:06:27;;;;;;;6.87;1.83;;;;;;;25.49;36.34;97823.47;5327183;26;20079;-82
2022/06/22 03:08:56;;;;;;;3.55;1.83;;;;;;;26.32;34.24;97836.44;5326472;26;20470;-82
2022/06/22 03:11:23;;;;;;;4.05;2.05;;;;;;;26.98;34.79;97841.31;5346512;26;20076;-82
2022/06/22 03:13:59;;;;;;;6.37;2.50;;;;;;;26.25;39.58;97857.44;5326777;26;20120;-82
2022/06/22 03:16:35;;;;;;;4.70;2.13;;;;;;;26.01;42.51;97845.09;5326193;26;20108;-82
2022/06/22 03:19:08;;;;;;;5.15;2.30;;;;;;;25.96;43.57;97839.50;5346192;26;20573;-82
2022/06/22 03:21:35;;;;;;;7.95;2.47;;;;;;;24.71;45.58;97829.88;5346210;26;20104;-82
2022/06/22 03:24:23;;;;;;;3.45;2.12;;;;;;;24.85;45.08;97830.25;5346487;26;20064;-82
2022/06/22 03:26:56;;;;;;;3.70;1.98;;;;;;;24.58;45.60;97810.22;5346644;26;20072;-82
2022/06/22 03:29:30;;;;;;;4.55;2.15;;;;;;;25.28;43.58;97810.72;5326206;26;20075;-82
2022/06/22 03:32:01;;;;;;;4.50;1.90;;;;;;;25.71;41.99;97811.44;5346616;26;20132;-82
2022/06/22 03:34:33;;;;;;;5.30;2.30;;;;;;;26.67;38.50;97820.13;5326661;26;20139;-82
2022/06/22 03:37:13;;;;;;;5.18;2.35;;;;;;;26.37;41.29;97828.84;5346133;26;20064;-82
2022/06/22 03:39:44;;;;;;;6.35;2.45;;;;;;;25.78;42.87;97841.50;5326504;26;20139;-82
2022/06/22 03:42:21;;;;;;;8.50;2.53;;;;;;;25.95;42.18;97838.66;5326804;26;20080;-82
2022/06/22 03:44:57;;;;;;;6.65;2.00;;;;;;;25.74;42.15;97827.78;5326614;26;20056;-82
2022/06/22 03:47:39;;;;;;;5.45;2.50;;;;;;;25.61;42.75;97817.66;5326881;26;20107;-82
2022/06/22 03:50:22;;;;;;;3.65;2.30;;;;;;;25.78;42.09;97820.34;5326197;26;20054;-82
2022/06/22 03:53:03;;;;;;;5.03;2.28;;;;;;;25.49;42.01;97818.19;5346609;26;20508;-82
2022/06/22 03:55:34;;;;;;;6.93;2.40;;;;;;;25.61;39.66;97816.84;5346386;26;20084;-82
2022/06/22 03:58:03;;;;;;;6.05;2.40;;;;;;;25.74;39.99;97804.00;5345936;26;20048;-82
2022/06/22 04:00:32;;;;;;;4.60;2.20;;;;;;;25.85;40.44;97806.31;5346356;26;20127;-83
2022/06/22 04:02:59;;;;;;;5.70;2.22;;;;;;;27.21;36.68;97812.22;5326635;26;20120;-82
2022/06/22 04:05:43;;;;;;;3.28;2.28;;;;;;;26.78;37.38;97816.25;5346201;26;20119;-82
2022/06/22 04:08:26;;;;;;;9.82;2.83;;;;;;;26.63;38.51;97824.13;5346431;26;20101;-82
2022/06/22 04:11:06;;;;;;;8.82;2.50;;;;;;;26.49;38.35;97833.59;5326194;26;20084;-82
2022/06/22 04:13:42;;;;;;;6.32;2.17;;;;;;;26.41;39.15;97843.37;5326839;26;20366;-82
2022/06/22 04:16:32;;;;;;;4.47;2.05;;;;;;;25.54;40.19;97842.28;5346469;26;20122;-82
2022/06/22 04:19:37;;;;;;;5.87;2.05;;;;;;;25.78;38.98;97838.84;5322000;27;20091;-82
2022/06/22 04:22:10;;;;;;;4.82;1.95;;;;;;;25.49;38.59;97849.88;5324237;26;20093;-82
2022/06/22 04:24:48;;;;;;;3.90;1.85;;;;;;;25.49;38.91;97845.41;5304685;27;20085;-82
2022/06/22 04:27:18;;;;;;;4.22;1.92;;;;;;;26.28;37.08;97837.78;5322672;27;20081;-82
2022/06/22 04:29:54;;;;;;;3.90;2.08;;;;;;;26.55;35.47;97842.66;5324143;26;20070;-82
2022/06/22 04:32:28;;;;;;;3.60;1.90;;;;;;;27.11;34.74;97843.41;5324659;26;20089;-82
2022/06/22 04:35:01;;;;;;;4.30;2.15;;;;;;;26.98;36.10;97848.44;5324964;27;20109;-82
2022/06/22 04:37:37;;;;;;;4.00;1.83;;;;;;;27.96;33.20;97844.09;5324763;26;20475;-82
2022/06/22 04:40:14;;;;;;;3.45;1.70;;;;;;;27.64;31.02;97849.66;5324330;26;20417;-82
2022/06/22 04:42:41;;;;;;;3.12;1.70;;;;;;;27.58;32.00;97848.56;5324877;26;20123;-82
2022/06/22 04:45:28;;;;;;;5.25;1.80;;;;;;;28.04;30.43;97853.00;5325338;26;20204;-82
2022/06/22 04:48:03;;;;;;;5.23;1.80;;;;;;;28.12;29.71;97850.28;5324693;27;20116;-82
2022/06/22 04:50:30;;;;;;;4.10;1.55;;;;;;;28.39;30.52;97843.53;5320990;26;147677;-82
2022/06/22 04:52:59;;;;;;;3.03;1.80;;;;;;;28.41;30.41;97868.91;5325706;26;20045;-82
2022/06/22 04:55:26;;;;;;;5.03;2.35;;;;;;;27.89;31.74;97874.19;5326122;26;20068;-82
2022/06/22 04:58:01;;;;;;;2.87;1.90;;;;;;;28.20;31.49;97876.72;5325590;26;20540;-82
2022/06/22 05:00:30;;;;;;;5.25;2.72;;;;;;;27.85;32.11;97883.47;5325555;26;20111;-82
2022/06/22 05:03:07;;;;;;;4.12;1.98;;;;;;;26.90;34.39;97880.22;5325573;27;20090;-82
2022/06/22 05:05:35;;;;;;;3.20;2.00;;;;;;;26.70;36.07;97878.03;5325328;26;20425;-82
2022/06/22 05:08:09;;;;;;;4.93;1.95;;;;;;;26.18;37.25;97877.62;5324809;26;20112;-82
2022/06/22 05:10:55;;;;;;;5.32;1.80;;;;;;;26.57;35.70;97861.00;5324351;26;20057;-82
2022/06/22 05:13:28;;;;;;;6.20;2.17;;;;;;;27.32;34.81;97856.03;5325741;26;20048;-82
2022/06/22 05:15:57;;;;;;;4.35;1.87;;;;;;;27.13;34.76;97862.62;5324016;27;20117;-82
2022/06/22 05:18:28;;;;;;;3.72;1.70;;;;;;;27.36;32.81;97857.34;5327176;26;20100;-82
2022/06/22 05:21:02;;;;;;;4.37;1.83;;;;;;;27.38;32.04;97856.16;5348024;26;20108;-82
2022/06/22 05:23:30;;;;;;;2.53;1.62;;;;;;;27.53;31.18;97853.56;5328918;26;20029;-82
2022/06/22 05:26:02;;;;;;;3.37;1.70;;;;;;;26.22;34.12;97848.03;5348424;26;20117;-82
2022/06/22 05:28:31;;;;;;;4.93;1.98;;;;;;;26.73;33.97;97853.03;5347950;26;20034;-82
2022/06/22 05:31:09;;;;;;;7.03;1.70;;;;;;;26.77;33.81;97849.84;5348543;26;20111;-82
2022/06/22 05:33:42;;;;;;;4.93;1.73;;;;;;;27.16;33.65;97851.66;5348312;26;20505;-82
2022/06/22 05:36:11;;;;;;;3.35;1.60;;;;;;;26.12;34.57;97857.97;5348135;26;20081;-82
2022/06/22 05:38:42;;;;;;;2.83;1.52;;;;;;;27.52;31.69;97865.16;5347987;26;20073;-82
2022/06/22 05:41:10;;;;;;;2.58;1.60;;;;;;;27.15;32.94;97871.22;5328389;26;20135;-82
2022/06/22 05:43:38;;;;;;;6.47;1.77;;;;;;;27.45;30.38;97885.44;5327724;26;20107;-82
2022/06/22 05:46:06;;;;;;;3.33;1.67;;;;;;;26.75;31.79;97875.66;5347930;26;20114;-82
2022/06/22 05:48:38;;;;;;;3.47;1.70;;;;;;;26.60;31.90;97882.69;5347391;26;20118;-82
2022/06/22 05:51:33;;;;;;;2.55;1.50;;;;;;;25.61;33.70;97875.78;5347525;26;20119;-82
2022/06/22 05:54:12;;;;;;;3.80;1.50;;;;;;;26.53;32.05;97885.19;5334298;26;20059;-82
2022/06/22 05:56:50;;;;;;;4.75;1.60;;;;;;;26.07;33.59;97878.81;5345945;26;20064;-83
2022/06/22 05:59:26;;;;;;;2.97;1.60;;;;;;;26.36;34.48;97885.34;5326577;26;20202;-82
2022/06/22 06:02:05;;;;;;;4.62;1.75;;;;;;;26.31;34.59;97888.50;5326184;26;20064;-83
2022/06/22 06:04:37;;;;;;;3.62;1.55;;;;;;;25.91;34.96;97882.28;5346259;26;20409;-83
2022/06/22 06:07:11;;;;;;;4.37;1.80;;;;;;;25.42;35.08;97889.34;5313577;26;20108;-82
2022/06/22 06:09:38;;;;;;;3.67;1.67;;;;;;;24.67;34.86;97883.09;5353823;26;20097;-82
2022/06/22 06:12:20;;;;;;;6.20;1.75;;;;;;;25.05;34.78;97874.72;5353850;26;20127;-82
2022/06/22 06:14:51;;;;;;;4.05;1.60;;;;;;;24.25;34.52;97865.41;5345966;26;20430;-85
2022/06/22 06:17:29;;;;;;;3.53;1.90;;;;;;;24.10;35.37;97853.78;5325660;26;20121;-84
2022/06/22 06:19:58;;;;;;;3.03;1.70;;;;;;;24.17;36.53;97854.81;5345385;26;20463;-85
2022/06/22 06:22:29;;;;;;;4.35;1.65;;;;;;;24.27;36.89;97849.44;5326105;26;20087;-84
2022/06/22 06:28:11;;;;;;;4.57;1.58;;;;;;;26.06;33.45;97852.53;5345615;26;20099;-84
2022/06/22 06:30:43;;;;;;;5.30;1.90;;;;;;;26.92;30.98;97859.72;5345482;26;20111;-84
2022/06/22 06:33:45;;;;;;;5.18;1.70;;;;;;;27.13;31.01;97857.31;5345389;26;20139;-83
2022/06/22 06:36:16;;;;;;;3.25;1.60;;;;;;;27.38;30.38;97873.87;5341782;26;20060;-83
2022/06/22 06:39:05;;;;;;;3.85;1.50;;;;;;;27.15;29.78;97873.84;5345296;26;20418;-85
2022/06/22 06:41:45;;;;;;;2.70;1.52;;;;;;;26.68;28.96;97858.00;5325937;26;20544;-84
2022/06/22 06:44:18;;;;;;;5.37;1.70;;;;;;;27.82;27.49;97867.94;5325336;26;20073;-84
2022/06/22 06:46:51;;;;;;;4.22;1.60;;;;;;;29.08;26.47;97878.56;5325601;26;20072;-84
2022/06/22 06:49:46;;;;;;;7.07;1.50;;;;;;;27.94;27.63;97863.84;5329539;26;20051;-83
2022/06/22 06:52:50;;;;;;;2.87;1.70;;;;;;;29.12;26.48;97861.22;5308362;26;20061;-84
2022/06/22 06:55:24;;;;;;;3.22;1.48;;;;;;;29.89;25.74;97849.94;5326871;26;20155;-83
2022/06/22 06:58:11;;;;;;;3.85;1.50;;;;;;;27.85;25.76;97841.06;5326912;26;20120;-84
2022/06/22 07:00:38;;;;;;;2.70;1.30;;;;;;;29.97;23.55;97841.81;5345896;26;20079;-84
2022/06/22 07:03:16;;;;;;;3.80;1.48;;;;;;;30.04;24.06;97858.63;5346446;26;20088;-84
2022/06/22 07:05:43;;;;;;;1.95;1.25;;;;;;;30.58;23.86;97873.97;5346689;26;20048;-84
2022/06/22 07:08:17;;;;;;;6.00;1.50;;;;;;;30.38;23.20;97867.69;5346035;26;20451;-83
2022/06/22 07:11:13;;;;;;;2.50;1.30;;;;;;;29.65;23.90;97872.44;5345894;26;20060;-83
2022/06/22 07:13:46;;;;;;;4.90;1.27;;;;;;;29.65;24.27;97859.94;5346281;26;20071;-83
2022/06/22 07:16:16;;;;;;;4.55;1.50;;;;;;;30.63;23.54;97847.59;5346456;26;20197;-83
2022/06/22 07:18:48;;;;;;;1.35;1.20;;;;;;;29.66;25.37;97874.06;5346299;26;20427;-84
2022/06/22 07:21:47;;;;;;;1.50;1.10;;;;;;;30.86;23.40;97870.44;5326793;26;20438;-84
2022/06/22 07:24:24;;;;;;;2.95;1.65;;;;;;;30.53;23.08;97877.22;5304764;26;20124;-84
2022/06/22 07:26:57;;;;;;;1.60;1.20;;;;;;;30.28;24.92;97868.03;5326878;26;20124;-84
2022/06/22 07:29:51;;;;;;;2.75;1.40;;;;;;;31.38;21.55;97864.50;5346058;26;20058;-84
2022/06/22 07:32:40;;;;;;;3.08;1.40;;;;;;;31.07;22.72;97870.31;5346556;26;20125;-84
2022/06/22 07:35:24;;;;;;;4.20;1.67;;;;;;;30.31;22.45;97869.50;5346010;26;20060;-85
2022/06/22 07:38:36;;;;;;;1.58;1.20;;;;;;;32.22;20.34;97877.25;5345915;26;20542;-84
2022/06/22 07:41:18;;;;;;;2.47;1.27;;;;;;;32.93;19.96;97885.34;5324412;26;20438;-84
2022/06/22 07:43:48;;;;;;;1.33;1.20;;;;;;;33.13;18.54;97882.59;5329366;26;20095;-84
2022/06/22 07:46:36;;;;;;;3.05;1.35;;;;;;;33.16;19.17;97874.16;5346466;26;20060;-84
2022/06/22 07:49:09;;;;;;;2.62;1.42;;;;;;;33.70;18.46;97869.31;5345103;26;20474;-85
2022/06/22 07:51:42;;;;;;;5.97;1.42;;;;;;;32.59;20.26;97865.09;5326764;26;20101;-84
2022/06/22 07:54:14;;;;;;;2.58;1.20;;;;;;;32.88;19.68;97868.34;5326798;26;20120;-85
2022/06/22 07:57:13;;;;;;;1.40;1.20;;;;;;;32.85;20.10;97874.91;5326237;26;20108;-85
2022/06/22 07:59:53;;;;;;;2.42;1.30;;;;;;;33.12;19.91;97874.78;5307599;26;20127;-84
2022/06/22 08:02:27;;;;;;;2.35;1.30;;;;;;;33.28;19.01;97874.28;5325953;26;20139;-84
2022/06/22 08:05:02;;;;;;;3.08;1.42;;;;;;;34.17;18.73;97878.66;5345684;26;20102;-84
2022/06/22 08:07:38;;;;;;;4.93;1.50;;;;;;;33.83;19.27;97867.37;5327654;26;20101;-83
2022/06/22 08:10:10;;;;;;;3.75;1.50;;;;;;;33.03;20.69;97863.53;5326008;26;20048;-84
2022/06/22 08:12:52;;;;;;;4.90;1.30;;;;;;;34.21;19.79;97859.22;5326799;26;20058;-84
2022/06/22 08:15:20;;;;;;;8.65;1.70;;;;;;;33.40;19.65;97858.44;5326335;26;20068;-84
2022/06/22 08:17:51;;;;;;;3.00;1.20;;;;;;;33.75;19.16;97859.59;5325950;26;20119;-84
2022/06/22 08:20:20;;;;;;;1.80;1.40;;;;;;;34.76;18.82;97858.47;5345907;26;20112;-85
2022/06/22 08:22:48;;;;;;;4.03;1.60;;;;;;;34.30;18.29;97859.75;5346296;26;20048;-84
2022/06/22 08:25:31;;;;;;;2.87;1.55;;;;;;;34.71;18.77;97856.47;5346136;26;20056;-85
2022/06/22 08:27:59;;;;;;;4.68;1.20;;;;;;;33.78;18.69;97845.78;5326430;26;20076;-84
2022/06/22 08:30:27;;;;;;;3.72;1.30;;;;;;;35.16;17.84;97850.75;5345771;26;20056;-84
2022/06/22 08:33:05;;;;;;;5.60;1.50;;;;;;;34.36;18.90;97852.72;5346349;26;20055;-84
2022/06/22 08:35:39;;;;;;;3.17;1.50;;;;;;;34.69;18.10;97838.97;5346297;26;20073;-84
2022/06/22 08:38:10;;;;;;;2.67;1.50;;;;;;;34.13;19.50;97840.75;5326362;26;20090;-84
2022/06/22 08:40:46;;;;;;;3.03;1.50;;;;;;;33.12;21.95;97840.03;5326928;26;20026;-84
2022/06/22 08:43:29;;;;;;;4.20;1.50;;;;;;;34.56;18.23;97836.44;5326645;26;20119;-84
2022/06/22 08:46:10;;;;;;;10.40;2.05;;;;;;;33.95;19.26;97830.03;5326324;26;20320;-84
2022/06/22 08:48:52;;;;;;;4.00;1.50;;;;;;;34.35;18.67;97838.50;5346236;26;20403;-84
2022/06/22 08:52:08;;;;;;;4.03;1.67;;;;;;;33.70;19.74;97835.34;5345928;26;20112;-84
2022/06/22 08:54:56;;;;;;;5.97;1.77;;;;;;;33.89;18.85;97831.72;5327006;26;20107;-84
2022/06/22 08:57:43;;;;;;;3.40;1.70;;;;;;;35.01;18.07;97834.28;5346115;26;20108;-83
2022/06/22 09:00:33;;;;;;;3.03;1.48;;;;;;;34.75;18.29;97836.19;5345925;26;20107;-83
2022/06/22 09:03:22;;;;;;;4.93;1.73;;;;;;;35.46;18.46;97836.53;5326531;26;20075;-84
2022/06/22 09:06:00;;;;;;;5.65;1.60;;;;;;;35.56;17.43;97853.72;5345831;26;20075;-84
2022/06/22 09:08:42;;;;;;;5.37;1.90;;;;;;;33.08;21.07;97845.81;5326348;26;20075;-84
2022/06/22 09:11:30;;;;;;;4.97;1.80;;;;;;;33.19;20.80;97862.22;5346084;26;20124;-83
2022/06/22 09:14:16;;;;;;;2.78;1.60;;;;;;;33.02;21.14;97851.19;5345518;26;20048;-83
2022/06/22 09:16:55;;;;;;;4.72;1.90;;;;;;;33.47;20.62;97853.84;5346108;26;20060;-84
2022/06/22 09:19:50;;;;;;;5.10;2.00;;;;;;;34.51;19.51;97854.00;5345580;26;20108;-83
2022/06/22 09:22:28;;;;;;;9.75;2.20;;;;;;;34.56;19.94;97856.03;5345914;26;20103;-83
2022/06/22 09:25:16;;;;;;;5.25;2.00;;;;;;;34.69;20.01;97853.19;5346298;26;20055;-83
2022/06/22 09:28:13;;;;;;;8.18;2.30;;;;;;;35.38;19.78;97852.97;5325991;26;20108;-84
2022/06/22 09:31:07;;;;;;;5.95;2.05;;;;;;;34.68;20.38;97840.03;5311771;26;20085;-85
2022/06/22 09:33:59;;;;;;;5.10;1.98;;;;;;;35.32;19.48;97850.13;5345921;26;20104;-84
2022/06/22 09:37:01;;;;;;;5.35;1.85;;;;;;;34.80;19.41;97848.94;5345718;26;20417;-84
2022/06/22 09:39:46;;;;;;;5.47;2.00;;;;;;;35.53;19.42;97854.19;5296711;26;20087;-83
2022/06/22 09:42:31;;;;;;;5.85;2.30;;;;;;;34.85;19.78;97850.94;5345976;26;20113;-84
2022/06/22 09:44:59;;;;;;;5.82;2.00;;;;;;;35.13;19.31;97845.84;5326678;26;20060;-84
2022/06/22 09:47:47;;;;;;;5.07;2.08;;;;;;;34.08;19.95;97856.69;5346084;26;20577;-84
2022/06/22 09:50:28;;;;;;;5.62;2.17;;;;;;;34.58;20.54;97853.13;5345072;26;20063;-84
2022/06/22 09:53:07;;;;;;;8.23;2.00;;;;;;;34.06;20.06;97853.41;5346126;26;20102;-84
2022/06/22 09:59:03;;;;;;;5.43;2.20;;;;;;;34.09;21.06;97846.78;5329281;26;20111;-83
2022/06/22 10:01:37;;;;;;;5.03;2.10;;;;;;;35.07;18.84;97838.72;5345477;26;20383;-84
2022/06/22 10:04:31;;;;;;;7.10;2.10;;;;;;;35.36;18.74;97850.47;5326357;26;20527;-84
2022/06/22 10:07:01;;;;;;;7.30;2.40;;;;;;;34.72;19.42;97852.72;5345972;26;20391;-84
2022/06/22 10:09:43;;;;;;;3.12;1.90;;;;;;;34.00;20.99;97862.31;5345405;26;20433;-84
2022/06/22 10:12:43;;;;;;;3.65;1.75;;;;;;;35.21;19.22;97848.22;5345785;26;20055;-84
2022/06/22 10:15:34;;;;;;;6.07;2.08;;;;;;;34.46;21.22;97856.56;5345883;26;20091;-84
2022/06/22 10:18:10;;;;;;;4.03;1.80;;;;;;;33.44;21.12;97856.97;5345790;26;20111;-84
2022/06/22 10:21:00;;;;;;;4.43;2.00;;;;;;;33.43;21.93;97866.84;5345533;26;20049;-84
2022/06/22 10:23:52;;;;;;;3.55;1.70;;;;;;;34.71;19.81;97869.03;5326082;26;20064;-84
2022/06/22 10:26:40;;;;;;;3.20;1.85;;;;;;;33.15;21.66;97869.00;5346443;26;20424;-85
2022/06/22 10:29:43;;;;;;;4.53;2.05;;;;;;;31.08;25.14;97845.31;5346630;26;20119;-84
2022/06/22 10:32:31;;;;;;;3.92;2.00;;;;;;;31.67;24.26;97845.44;5346738;26;20052;-84
2022/06/22 10:35:20;;;;;;;9.25;1.90;;;;;;;32.56;23.85;97833.47;5346780;26;20045;-84
2022/06/22 10:37:51;;;;;;;5.03;1.70;;;;;;;33.61;22.12;97853.56;5346043;26;20060;-84
2022/06/22 10:47:05;;;;;;;3.72;1.80;;;;;;;33.79;21.72;97839.41;5346811;26;20372;-85
2022/06/22 10:49:38;;;;;;;4.53;1.80;;;;;;;33.28;23.21;97845.69;5327107;26;20065;-84
2022/06/22 10:52:30;;;;;;;3.83;1.70;;;;;;;33.83;22.79;97842.47;5346411;26;20099;-84
2022/06/22 10:55:14;;;;;;;5.07;1.87;;;;;;;33.61;22.25;97840.19;5346679;26;20107;-84
2022/06/22 10:57:51;;;;;;;3.50;1.85;;;;;;;34.37;22.26;97835.59;5326467;26;20048;-83
2022/06/22 11:00:44;;;;;;;4.47;1.80;;;;;;;33.49;21.72;97833.03;5346449;26;20424;-84
2022/06/22 11:03:42;;;;;;;3.40;1.70;;;;;;;34.05;22.05;97830.34;5346678;26;20079;-84
2022/06/22 11:06:12;;;;;;;6.70;2.00;;;;;;;33.42;22.94;97834.97;5346212;26;20058;-84
2022/06/22 11:09:14;;;;;;;3.70;1.90;;;;;;;34.05;22.19;97829.53;5346450;26;20127;-84
2022/06/22 11:12:14;;;;;;;3.83;1.70;;;;;;;34.63;21.73;97821.94;5311608;26;20364;-84
2022/06/22 11:14:56;;;;;;;3.25;1.80;;;;;;;34.16;22.48;97826.13;5346763;26;20143;-84
2022/06/22 11:17:54;;;;;;;4.28;1.98;;;;;;;33.65;23.61;97822.63;5346507;26;20115;-84
2022/06/22 11:20:52;;;;;;;3.50;1.90;;;;;;;32.87;24.15;97824.75;5326387;26;20051;-84
2022/06/22 11:23:52;;;;;;;5.72;1.90;;;;;;;33.16;25.00;97818.00;5346493;26;20100;-84
2022/06/22 11:33:05;;;;;;;3.22;1.70;;;;;;;33.60;23.46;97818.97;5346469;26;20450;-83
2022/06/22 11:35:44;;;;;;;3.72;1.75;;;;;;;34.05;22.04;97818.84;5300998;26;20057;-83
2022/06/22 11:38:20;;;;;;;2.85;1.70;;;;;;;33.50;24.19;97824.81;5346333;26;20120;-83
2022/06/22 11:40:47;;;;;;;3.72;1.80;;;;;;;32.73;25.67;97826.63;5346374;26;20506;-83
2022/06/22 11:43:31;;;;;;;5.70;2.00;;;;;;;32.84;24.87;97829.69;5347029;26;20119;-83
2022/06/22 11:46:32;;;;;;;3.87;2.00;;;;;;;33.23;24.85;97820.66;5326971;26;20116;-84
2022/06/22 11:49:27;;;;;;;6.07;2.10;;;;;;;33.10;24.88;97829.56;5290470;26;20060;-84
2022/06/22 11:51:53;;;;;;;4.03;1.90;;;;;;;33.15;24.19;97821.72;5346403;26;20116;-84
2022/06/22 11:54:39;;;;;;;3.72;2.00;;;;;;;33.46;24.98;97823.59;5346526;26;20051;-84
2022/06/22 11:57:34;;;;;;;4.40;2.00;;;;;;;33.21;24.97;97815.53;5326571;26;20064;-84
2022/06/22 12:00:26;;;;;;;3.92;1.90;;;;;;;33.06;25.00;97802.44;5346472;26;20111;-83
2022/06/22 12:03:28;;;;;;;4.25;1.95;;;;;;;32.50;25.26;97787.06;5346103;26;20099;-83
2022/06/22 12:06:16;;;;;;;4.40;2.25;;;;;;;32.34;25.96;97790.22;5326684;26;20045;-84
2022/06/22 12:09:05;;;;;;;6.22;2.22;;;;;;;32.48;25.96;97778.44;5346040;26;20084;-84
2022/06/22 12:11:51;;;;;;;6.05;2.05;;;;;;;32.03;25.47;97771.38;5346834;26;20459;-84
2022/06/22 12:18:01;;;;;;;5.05;2.00;;;;;;;32.86;25.40;97785.72;5329741;26;20086;-83
2022/06/22 12:20:46;;;;;;;7.25;2.12;;;;;;;32.99;24.97;97780.28;5326531;26;20096;-84
2022/06/22 12:23:25;;;;;;;3.95;2.10;;;;;;;32.43;25.46;97783.63;5346128;26;20532;-83
2022/06/22 12:26:16;;;;;;;4.60;1.65;;;;;;;32.20;25.42;97784.03;5346477;26;20111;-83
2022/06/22 12:28:46;;;;;;;8.48;2.47;;;;;;;33.38;23.89;97789.09;5346204;26;20070;-84
2022/06/22 12:31:17;;;;;;;4.97;1.95;;;;;;;33.27;24.03;97787.91;5346126;26;20135;-84
2022/06/22 12:33:50;;;;;;;6.28;1.87;;;;;;;32.60;24.34;97783.94;5327110;26;20418;-84
2022/06/22 12:36:29;;;;;;;4.93;2.00;;;;;;;32.17;26.52;97780.97;5326523;26;20059;-84
2022/06/22 12:39:05;;;;;;;4.82;1.80;;;;;;;31.97;26.47;97782.87;5346655;26;20049;-84
2022/06/22 12:42:14;;;;;;;3.37;1.80;;;;;;;32.21;25.39;97782.19;5346432;26;20385;-85
2022/06/22 12:45:04;;;;;;;7.12;2.03;;;;;;;32.75;25.31;97787.19;5345895;26;20109;-84
2022/06/22 12:48:25;;;;;;;4.93;2.20;;;;;;;32.86;25.52;97780.38;5345866;26;20049;-84
2022/06/22 12:51:13;;;;;;;3.78;1.95;;;;;;;31.86;27.12;97771.81;5345808;26;20440;-84
2022/06/22 12:53:53;;;;;;;3.03;1.73;;;;;;;31.29;27.31;97783.06;5326657;26;20095;-84
2022/06/22 12:56:27;;;;;;;5.00;1.85;;;;;;;30.96;27.54;97780.31;5346381;26;20115;-83
2022/06/22 12:59:00;;;;;;;5.95;2.10;;;;;;;30.78;27.83;97773.72;5345771;26;20067;-83
2022/06/22 13:01:27;;;;;;;4.10;2.15;;;;;;;30.90;27.83;97778.44;5326539;26;20080;-83